aviador You're here:

KOGD Decoded Metar

OGDEN in UT, USA
Report Time2018-05-21 19:53:00
UTC Time2018-05-21 20:24:34
Flight Rules vfr VFR
Wind340° at 06 kt
W.Decomp.*RWY 34: 5.8 kt HW 1.5 kt LCW
RWY 03: 2.6 kt HW 5.4 kt LCW
RWY 25: 1.5 kt HW 5.8 kt RCW
W.Rank340° ranks 8
Current wind is below 340° avg. (7.6)
Visibility9999 m
Phenomena:N/A
Clouds:N/A
Expected CloudBase > 7,200 ft AGL from Temp-Dew spread
CeilingNone
Temp24°C (ISA +18)
Dew Point06°C (31% RH)
AAT20.9°C
QNH1012 hPa
Density Alt6,647 ft
Elevation4,439 ft
Report Wrong Elevation
Raw Report
KOGD 211953Z 34006KT 10SM CLR 24/06 A2988 RMK AO2 SLP069
T02390056=

Extra information for KOGD:More info

Metar Taf Metar & Taf Last 4 Metars F.Rules Stats Wind Profile Meteogram Temp Stats Airport Information Weather charts Add Link Nearby VenuesMetar ALERT Operation Metar Decoded Social comments

AIRNAV info for KOGD